createdAt,value
2017-10-28T00:00:01.713Z,0
2017-10-28T00:01:14.325Z,0
2017-10-28T00:02:26.945Z,0
2017-10-28T00:03:39.213Z,0
2017-10-28T00:04:51.827Z,0
2017-10-28T00:06:04.127Z,0
2017-10-28T00:07:16.712Z,0
2017-10-28T00:08:29.316Z,0
2017-10-28T00:09:41.905Z,0
2017-10-28T00:10:54.184Z,0
2017-10-28T00:12:06.472Z,0
2017-10-28T00:13:18.777Z,0
2017-10-28T00:14:31.062Z,0
2017-10-28T00:15:43.960Z,0
2017-10-28T00:16:55.613Z,0
2017-10-28T00:18:07.906Z,0
2017-10-28T00:19:20.529Z,0
2017-10-28T00:20:33.128Z,0
2017-10-28T00:21:45.748Z,0
2017-10-28T00:22:57.388Z,0
2017-10-28T00:24:09.709Z,0
2017-10-28T00:25:22.304Z,0
2017-10-28T00:26:34.603Z,0
2017-10-28T00:27:47.276Z,0
2017-10-28T00:28:59.594Z,0
2017-10-28T00:30:12.204Z,0
2017-10-28T00:31:24.149Z,0
2017-10-28T00:32:36.422Z,0
2017-10-28T00:33:48.402Z,0
2017-10-28T00:35:00.695Z,0
2017-10-28T00:36:12.964Z,0
2017-10-28T00:37:25.559Z,0
2017-10-28T00:38:37.837Z,0
2017-10-28T00:39:50.430Z,0
2017-10-28T00:41:03.023Z,0
2017-10-28T00:42:15.014Z,0
2017-10-28T00:43:27.635Z,0
2017-10-28T00:44:39.934Z,0
2017-10-28T00:45:52.533Z,0
2017-10-28T00:47:04.829Z,0
2017-10-28T00:48:17.739Z,0
2017-10-28T00:49:30.045Z,0
2017-10-28T00:50:42.658Z,0
2017-10-28T00:51:55.262Z,0
2017-10-28T00:53:07.554Z,0
2017-10-28T00:54:19.818Z,0
2017-10-28T00:55:32.444Z,0
2017-10-28T00:56:45.033Z,0
2017-10-28T00:57:57.336Z,0
2017-10-28T00:59:09.653Z,0
2017-10-28T01:00:22.274Z,0
2017-10-28T01:01:34.579Z,0
2017-10-28T01:02:46.843Z,0
2017-10-28T01:03:59.467Z,0
2017-10-28T01:05:12.059Z,0
2017-10-28T01:06:24.707Z,0
2017-10-28T01:07:37.004Z,0
2017-10-28T01:08:49.631Z,0
2017-10-28T01:10:02.550Z,0
2017-10-28T01:11:14.866Z,0
2017-10-28T01:12:27.163Z,0
2017-10-28T01:13:39.159Z,0
2017-10-28T01:14:51.849Z,0
2017-10-28T01:16:04.422Z,0
2017-10-28T01:17:16.384Z,0
2017-10-28T01:18:28.663Z,0
2017-10-28T01:19:41.257Z,0
2017-10-28T01:20:53.530Z,0
2017-10-28T01:22:05.805Z,0
2017-10-28T01:23:18.424Z,0
2017-10-28T01:24:31.018Z,0
2017-10-28T01:25:42.990Z,0
2017-10-28T01:26:55.585Z,0
2017-10-28T01:28:08.207Z,0
2017-10-28T01:29:20.798Z,0
2017-10-28T01:30:33.397Z,0
2017-10-28T01:31:45.990Z,0
2017-10-28T01:32:58.613Z,0
2017-10-28T01:34:11.222Z,0
2017-10-28T01:35:23.186Z,0
2017-10-28T01:36:35.471Z,0
2017-10-28T01:37:47.768Z,0
2017-10-28T01:39:00.405Z,0
2017-10-28T01:40:12.659Z,0
2017-10-28T01:41:24.921Z,0
2017-10-28T01:42:37.506Z,0
2017-10-28T01:43:50.116Z,0
2017-10-28T01:45:02.743Z,0
2017-10-28T01:46:15.038Z,0
2017-10-28T01:47:26.687Z,0
2017-10-28T01:48:39.305Z,0
2017-10-28T01:49:51.579Z,0
2017-10-28T01:51:04.205Z,0
2017-10-28T01:52:16.490Z,0
2017-10-28T01:53:29.111Z,0
2017-10-28T01:54:41.723Z,0
2017-10-28T01:55:54.323Z,0
2017-10-28T01:57:06.315Z,0
2017-10-28T01:58:18.924Z,0
2017-10-28T01:59:31.515Z,0
2017-10-28T02:00:43.809Z,0
2017-10-28T02:01:56.409Z,0
2017-10-28T02:03:09.025Z,0
2017-10-28T02:04:21.642Z,0
2017-10-28T02:05:33.960Z,0
2017-10-28T02:06:46.608Z,0
2017-10-28T02:07:59.176Z,0
2017-10-28T02:09:11.157Z,0
2017-10-28T02:10:23.748Z,0
2017-10-28T02:11:36.022Z,0
2017-10-28T02:12:48.659Z,0
2017-10-28T02:14:01.265Z,0
2017-10-28T02:15:14.193Z,0
2017-10-28T02:16:26.828Z,0
2017-10-28T02:17:39.416Z,0
2017-10-28T02:18:51.676Z,0
2017-10-28T02:20:03.983Z,0
2017-10-28T02:21:16.289Z,0
2017-10-28T02:22:28.552Z,0
2017-10-28T02:23:40.845Z,0
2017-10-28T02:24:53.165Z,0
2017-10-28T02:26:05.443Z,0
2017-10-28T02:27:17.418Z,0
2017-10-28T02:28:29.688Z,0
2017-10-28T02:29:41.947Z,0
2017-10-28T02:30:54.526Z,0
2017-10-28T02:32:06.825Z,0
2017-10-28T02:33:19.446Z,0
2017-10-28T02:34:31.748Z,0
2017-10-28T02:35:44.362Z,0
2017-10-28T02:36:56.983Z,0
2017-10-28T02:38:09.266Z,0
2017-10-28T02:39:21.571Z,0
2017-10-28T02:40:34.183Z,0
2017-10-28T02:41:46.789Z,0
2017-10-28T02:42:59.406Z,0
2017-10-28T02:44:12.024Z,0
2017-10-28T02:45:24.654Z,0
2017-10-28T02:46:36.969Z,0
2017-10-28T02:47:49.511Z,0
2017-10-28T02:49:02.110Z,0
2017-10-28T02:50:14.733Z,0
2017-10-28T02:51:27.355Z,0
2017-10-28T02:52:39.985Z,0
2017-10-28T02:53:52.289Z,0
2017-10-28T02:55:04.634Z,0
2017-10-28T02:56:16.609Z,0
2017-10-28T02:57:28.883Z,0
2017-10-28T02:58:41.418Z,0
2017-10-28T02:59:54.021Z,0
2017-10-28T03:01:06.318Z,0
2017-10-28T03:02:18.963Z,0
2017-10-28T03:03:31.561Z,0
2017-10-28T03:04:43.860Z,0
2017-10-28T03:05:56.454Z,0
2017-10-28T03:07:08.745Z,0
2017-10-28T03:08:21.318Z,0
2017-10-28T03:09:33.287Z,0
2017-10-28T03:10:45.585Z,0
2017-10-28T03:11:58.207Z,0
2017-10-28T03:13:10.801Z,0
2017-10-28T03:14:23.421Z,0
2017-10-28T03:15:36.018Z,0
2017-10-28T03:16:48.302Z,0
2017-10-28T03:18:00.605Z,0
2017-10-28T03:19:12.929Z,0
2017-10-28T03:20:25.250Z,0
2017-10-28T03:21:37.546Z,0
2017-10-28T03:22:49.841Z,0
2017-10-28T03:24:02.163Z,0
2017-10-28T03:25:14.757Z,0
2017-10-28T03:26:26.708Z,0
2017-10-28T03:27:38.995Z,0
2017-10-28T03:28:51.611Z,0
2017-10-28T03:30:03.559Z,0
2017-10-28T03:31:16.126Z,0
2017-10-28T03:32:28.732Z,0
2017-10-28T03:33:41.028Z,0
2017-10-28T03:34:53.318Z,0
2017-10-28T03:36:05.293Z,0
2017-10-28T03:37:17.909Z,0
2017-10-28T03:38:30.490Z,0
2017-10-28T03:39:42.785Z,0
2017-10-28T03:40:55.415Z,0
2017-10-28T03:42:07.697Z,0
2017-10-28T03:43:20.307Z,0
2017-10-28T03:44:32.613Z,0
2017-10-28T03:45:45.206Z,0
2017-10-28T03:46:57.508Z,0
2017-10-28T03:48:10.097Z,0
2017-10-28T03:49:22.043Z,0
2017-10-28T03:50:34.668Z,0
2017-10-28T03:51:47.251Z,0
2017-10-28T03:52:59.859Z,0
2017-10-28T03:54:12.453Z,0
2017-10-28T03:55:25.067Z,0
2017-10-28T03:56:37.359Z,0
2017-10-28T03:57:49.966Z,0
2017-10-28T03:59:02.228Z,0
2017-10-28T04:00:14.857Z,0
2017-10-28T04:01:27.477Z,0
2017-10-28T04:02:39.124Z,0
2017-10-28T04:03:52.044Z,0
2017-10-28T04:05:04.304Z,0
2017-10-28T04:06:16.911Z,0
2017-10-28T04:07:29.528Z,0
2017-10-28T04:08:42.146Z,0
2017-10-28T04:09:54.435Z,0
2017-10-28T04:11:06.767Z,0
2017-10-28T04:12:19.363Z,0
2017-10-28T04:13:31.972Z,0
2017-10-28T04:14:44.228Z,0
2017-10-28T04:15:56.517Z,0
2017-10-28T04:17:09.138Z,0
2017-10-28T04:18:21.741Z,0
2017-10-28T04:19:34.359Z,0
2017-10-28T04:20:46.632Z,0
2017-10-28T04:21:58.952Z,0
2017-10-28T04:23:11.587Z,0
2017-10-28T04:24:24.208Z,0
2017-10-28T04:25:37.061Z,0
2017-10-28T04:26:49.340Z,0
2017-10-28T04:28:01.970Z,0
2017-10-28T04:29:14.576Z,0
2017-10-28T04:30:26.873Z,0
2017-10-28T04:31:39.168Z,0
2017-10-28T04:32:51.789Z,0
2017-10-28T04:34:04.416Z,0
2017-10-28T04:35:16.752Z,0
2017-10-28T04:36:29.623Z,0
2017-10-28T04:37:41.911Z,0
2017-10-28T04:38:54.217Z,0
2017-10-28T04:40:06.512Z,0
2017-10-28T04:41:18.798Z,0
2017-10-28T04:42:31.104Z,0
2017-10-28T04:43:43.717Z,0
2017-10-28T04:44:56.019Z,0
2017-10-28T04:46:08.639Z,0
2017-10-28T04:47:20.927Z,0
2017-10-28T04:48:33.557Z,0
2017-10-28T04:49:45.862Z,0
2017-10-28T04:50:58.469Z,0
2017-10-28T04:52:10.757Z,0
2017-10-28T04:53:23.369Z,0
2017-10-28T04:54:35.689Z,0
2017-10-28T04:55:48.302Z,0
2017-10-28T04:57:00.922Z,0
2017-10-28T04:58:13.215Z,0
2017-10-28T04:59:25.818Z,0
2017-10-28T05:00:38.455Z,0
2017-10-28T05:01:50.752Z,0
2017-10-28T05:03:03.383Z,0
2017-10-28T05:04:16.001Z,0
2017-10-28T05:05:28.613Z,0
2017-10-28T05:06:40.912Z,0
2017-10-28T05:07:53.539Z,0
2017-10-28T05:09:06.429Z,0
2017-10-28T05:10:18.718Z,0
2017-10-28T05:11:31.016Z,0
2017-10-28T05:12:43.316Z,0
2017-10-28T05:13:55.933Z,0
2017-10-28T05:15:07.605Z,0
2017-10-28T05:16:20.211Z,0
2017-10-28T05:17:32.503Z,0
2017-10-28T05:18:45.095Z,0
2017-10-28T05:19:57.369Z,0
2017-10-28T05:21:09.664Z,0
2017-10-28T05:22:22.300Z,0
2017-10-28T05:23:34.905Z,0
2017-10-28T05:24:47.204Z,0
2017-10-28T05:25:59.489Z,4
2017-10-28T05:27:12.096Z,4
2017-10-28T05:28:24.366Z,4
2017-10-28T05:29:36.955Z,4
2017-10-28T05:30:49.254Z,0
2017-10-28T05:32:01.843Z,8
2017-10-28T05:33:14.138Z,8
2017-10-28T05:34:26.461Z,12
2017-10-28T05:35:39.076Z,8
2017-10-28T05:36:51.280Z,8
2017-10-28T05:38:03.554Z,16
2017-10-28T05:39:15.826Z,16
2017-10-28T05:40:28.465Z,20
2017-10-28T05:41:41.016Z,28
2017-10-28T05:42:53.304Z,32
2017-10-28T05:44:05.583Z,36
2017-10-28T05:45:17.869Z,44
2017-10-28T05:46:30.145Z,56
2017-10-28T05:47:42.765Z,68
2017-10-28T05:48:55.365Z,96
2017-10-28T05:50:07.635Z,104
2017-10-28T05:51:19.920Z,96
2017-10-28T05:52:32.544Z,140
2017-10-28T05:53:44.847Z,144
2017-10-28T05:54:57.448Z,168
2017-10-28T05:56:10.059Z,184
2017-10-28T05:57:22.680Z,180
2017-10-28T05:58:34.627Z,208
2017-10-28T05:59:47.266Z,252
2017-10-28T06:00:59.868Z,264
2017-10-28T06:02:12.467Z,276
2017-10-28T06:03:24.675Z,308
2017-10-28T06:04:37.285Z,308
2017-10-28T06:05:49.899Z,328
2017-10-28T06:07:02.168Z,396
2017-10-28T06:08:14.791Z,452
2017-10-28T06:09:27.090Z,364
2017-10-28T06:10:39.379Z,472
2017-10-28T06:11:51.344Z,476
2017-10-28T06:13:03.622Z,524
2017-10-28T06:14:16.219Z,608
2017-10-28T06:15:28.535Z,672
2017-10-28T06:16:41.152Z,692
2017-10-28T06:17:53.098Z,784
2017-10-28T06:19:05.710Z,668
2017-10-28T06:20:18.004Z,884
2017-10-28T06:21:30.621Z,1112
2017-10-28T06:22:43.242Z,1144
2017-10-28T06:23:55.526Z,1016
2017-10-28T06:25:08.412Z,1276
2017-10-28T06:26:21.005Z,1336
2017-10-28T06:27:33.624Z,1364
2017-10-28T06:28:46.238Z,1532
2017-10-28T06:29:58.546Z,1864
2017-10-28T06:31:10.508Z,1564
2017-10-28T06:32:22.784Z,1900
2017-10-28T06:33:35.373Z,1820
2017-10-28T06:34:47.997Z,1952
2017-10-28T06:36:00.619Z,1828
2017-10-28T06:37:13.213Z,1956
2017-10-28T06:38:25.853Z,1844
2017-10-28T06:39:38.161Z,1772
2017-10-28T06:40:50.472Z,2108
2017-10-28T06:42:02.448Z,2328
2017-10-28T06:43:14.400Z,2312
2017-10-28T06:44:26.986Z,2180
2017-10-28T06:45:39.599Z,1716
2017-10-28T06:46:52.205Z,1840
2017-10-28T06:48:04.175Z,2052
2017-10-28T06:49:16.497Z,2688
2017-10-28T06:50:29.106Z,3040
2017-10-28T06:51:41.406Z,3224
2017-10-28T06:52:54.004Z,3528
2017-10-28T06:54:06.603Z,3528
2017-10-28T06:55:18.900Z,3568
2017-10-28T06:56:31.188Z,2904
2017-10-28T06:57:43.190Z,2420
2017-10-28T06:58:55.800Z,2660
2017-10-28T07:00:08.096Z,2684
2017-10-28T07:01:20.731Z,2516
2017-10-28T07:02:33.024Z,2476
2017-10-28T07:03:45.618Z,2476
2017-10-28T07:04:58.237Z,2864
2017-10-28T07:06:10.838Z,2612
2017-10-28T07:07:23.473Z,2364
2017-10-28T07:08:36.118Z,2200
2017-10-28T07:09:48.419Z,2264
2017-10-28T07:11:00.719Z,2436
2017-10-28T07:12:13.010Z,2252
2017-10-28T07:13:25.613Z,2444
2017-10-28T07:14:37.227Z,2184
2017-10-28T07:15:49.468Z,1864
2017-10-28T07:17:01.768Z,1732
2017-10-28T07:18:14.040Z,1940
2017-10-28T07:19:26.285Z,1744
2017-10-28T07:20:38.905Z,2640
2017-10-28T07:21:50.841Z,3440
2017-10-28T07:23:03.124Z,3248
2017-10-28T07:24:15.737Z,3372
2017-10-28T07:25:27.737Z,4180
2017-10-28T07:26:40.312Z,5060
2017-10-28T07:27:52.929Z,4424
2017-10-28T07:29:04.915Z,4128
2017-10-28T07:30:17.526Z,4444
2017-10-28T07:31:29.820Z,4388
2017-10-28T07:32:42.428Z,3456
2017-10-28T07:33:54.399Z,3424
2017-10-28T07:35:07.002Z,3672
2017-10-28T07:36:19.624Z,3780
2017-10-28T07:37:32.239Z,3072
2017-10-28T07:38:44.859Z,2996
2017-10-28T07:39:57.481Z,3004
2017-10-28T07:41:09.751Z,4136
2017-10-28T07:42:22.069Z,6616
2017-10-28T07:43:34.672Z,7376
2017-10-28T07:44:47.312Z,7520
2017-10-28T07:45:59.938Z,6816
2017-10-28T07:47:12.226Z,7556
2017-10-28T07:48:24.509Z,8688
2017-10-28T07:49:37.132Z,6224
2017-10-28T07:50:49.749Z,5352
2017-10-28T07:52:02.040Z,4896
2017-10-28T07:53:14.632Z,3776
2017-10-28T07:54:27.278Z,2696
2017-10-28T07:55:39.581Z,3372
2017-10-28T07:56:51.878Z,4328
2017-10-28T07:58:04.491Z,6068
2017-10-28T07:59:17.093Z,6948
2017-10-28T08:00:29.683Z,4884
2017-10-28T08:01:42.002Z,6084
2017-10-28T08:02:54.878Z,7372
2017-10-28T08:04:06.865Z,7936
2017-10-28T08:05:19.469Z,5664
2017-10-28T08:06:32.081Z,6308
2017-10-28T08:07:44.060Z,6120
2017-10-28T08:08:56.683Z,4528
2017-10-28T08:10:09.325Z,5432
2017-10-28T08:11:21.622Z,3280
2017-10-28T08:12:34.246Z,3032
2017-10-28T08:13:46.862Z,3208
2017-10-28T08:14:59.134Z,3512
2017-10-28T08:16:11.129Z,2932
2017-10-28T08:17:23.403Z,4188
2017-10-28T08:18:35.673Z,4016
2017-10-28T08:19:48.320Z,2240
2017-10-28T08:21:00.266Z,2388
2017-10-28T08:22:12.886Z,2576
2017-10-28T08:23:25.160Z,2448
2017-10-28T08:24:37.777Z,2372
2017-10-28T08:25:50.368Z,2644
2017-10-28T08:27:02.343Z,2204
2017-10-28T08:28:14.656Z,2364
2017-10-28T08:29:27.256Z,2340
2017-10-28T08:30:39.554Z,1652
2017-10-28T08:31:52.168Z,2044
2017-10-28T08:33:04.117Z,3064
2017-10-28T08:34:16.421Z,4352
2017-10-28T08:35:29.026Z,5128
2017-10-28T08:36:40.956Z,6096
2017-10-28T08:37:53.597Z,6428
2017-10-28T08:39:06.212Z,6060
2017-10-28T08:40:18.496Z,7220
2017-10-28T08:41:31.112Z,5996
2017-10-28T08:42:43.737Z,5552
2017-10-28T08:43:56.324Z,5952
2017-10-28T08:45:08.921Z,6508
2017-10-28T08:46:21.562Z,7948
2017-10-28T08:47:33.512Z,6056
2017-10-28T08:48:46.129Z,3744
2017-10-28T08:49:58.388Z,5328
2017-10-28T08:51:10.706Z,5932
2017-10-28T08:52:23.302Z,6524
2017-10-28T08:53:35.599Z,4468
2017-10-28T08:54:47.889Z,5328
2017-10-28T08:56:00.510Z,5704
2017-10-28T08:57:13.128Z,5640
2017-10-28T08:58:25.773Z,7080
2017-10-28T08:59:37.418Z,4224
2017-10-28T09:00:49.735Z,3276
2017-10-28T09:02:02.340Z,3236
2017-10-28T09:03:14.613Z,4888
2017-10-28T09:04:27.198Z,4100
2017-10-28T09:05:38.856Z,3740
2017-10-28T09:06:51.170Z,3316
2017-10-28T09:08:03.784Z,3572
2017-10-28T09:09:16.366Z,5140
2017-10-28T09:10:28.986Z,5332
2017-10-28T09:11:41.280Z,3896
2017-10-28T09:12:53.566Z,3332
2017-10-28T09:14:05.848Z,3208
2017-10-28T09:15:18.144Z,4192
2017-10-28T09:16:30.756Z,4204
2017-10-28T09:17:43.374Z,5480
2017-10-28T09:18:56.228Z,6264
2017-10-28T09:20:08.849Z,7356
2017-10-28T09:21:21.123Z,7520
2017-10-28T09:22:33.769Z,7860
2017-10-28T09:23:46.381Z,9804
2017-10-28T09:24:58.334Z,12424
2017-10-28T09:26:09.980Z,11968
2017-10-28T09:27:22.591Z,11888
2017-10-28T09:28:35.215Z,11376
2017-10-28T09:29:47.806Z,9948
2017-10-28T09:31:00.404Z,9428
2017-10-28T09:32:12.683Z,8704
2017-10-28T09:33:25.307Z,9220
2017-10-28T09:34:37.920Z,8672
2017-10-28T09:35:50.537Z,8484
2017-10-28T09:37:03.167Z,5832
2017-10-28T09:38:15.132Z,6236
2017-10-28T09:39:27.106Z,5716
2017-10-28T09:40:39.748Z,7492
2017-10-28T09:41:52.348Z,7412
2017-10-28T09:43:04.958Z,9492
2017-10-28T09:44:17.211Z,8824
2017-10-28T09:45:29.498Z,7988
2017-10-28T09:46:42.098Z,9232
2017-10-28T09:47:54.727Z,10492
2017-10-28T09:49:07.346Z,8748
2017-10-28T09:50:19.643Z,7556
2017-10-28T09:51:31.936Z,7564
2017-10-28T09:52:44.234Z,7908
2017-10-28T09:53:56.852Z,7744
2017-10-28T09:55:09.469Z,8424
2017-10-28T09:56:22.096Z,7400
2017-10-28T09:57:34.069Z,7684
2017-10-28T09:58:46.661Z,6040
2017-10-28T09:59:58.925Z,5552
2017-10-28T10:01:11.258Z,6640
2017-10-28T10:02:23.538Z,6148
2017-10-28T10:03:36.195Z,5312
2017-10-28T10:04:48.821Z,5924
2017-10-28T10:06:01.463Z,5132
2017-10-28T10:07:14.086Z,3888
2017-10-28T10:08:26.366Z,5032
2017-10-28T10:09:38.647Z,4872
2017-10-28T10:10:51.269Z,5320
2017-10-28T10:12:03.881Z,4380
2017-10-28T10:13:16.503Z,4192
2017-10-28T10:14:28.819Z,3768
2017-10-28T10:15:41.106Z,3120
2017-10-28T10:16:53.392Z,3124
2017-10-28T10:18:05.706Z,3512
2017-10-28T10:19:18.017Z,2872
2017-10-28T10:20:30.305Z,3380
2017-10-28T10:21:42.604Z,2752
2017-10-28T10:22:54.899Z,2908
2017-10-28T10:24:07.196Z,3108
2017-10-28T10:25:19.808Z,3744
2017-10-28T10:26:32.112Z,4256
2017-10-28T10:27:44.396Z,3728
2017-10-28T10:28:57.007Z,3960
2017-10-28T10:30:09.591Z,3952
2017-10-28T10:31:21.917Z,4344
2017-10-28T10:32:34.164Z,4924
2017-10-28T10:33:46.760Z,5340
2017-10-28T10:34:58.754Z,6592
2017-10-28T10:36:11.049Z,6632
2017-10-28T10:37:23.665Z,7140
2017-10-28T10:38:36.290Z,9584
2017-10-28T10:39:48.581Z,10204
2017-10-28T10:41:01.207Z,9072
2017-10-28T10:42:13.510Z,7720
2017-10-28T10:43:26.101Z,7008
2017-10-28T10:44:38.761Z,8696
2017-10-28T10:45:51.342Z,8868
2017-10-28T10:47:03.951Z,10960
2017-10-28T10:48:16.582Z,8428
2017-10-28T10:49:29.193Z,10224
2017-10-28T10:50:41.500Z,12808
2017-10-28T10:51:54.125Z,10384
2017-10-28T10:53:06.388Z,8012
2017-10-28T10:54:18.684Z,6996
2017-10-28T10:55:30.959Z,8680
2017-10-28T10:56:43.266Z,7092
2017-10-28T10:57:55.865Z,6668
2017-10-28T10:59:08.490Z,8292
2017-10-28T11:00:20.817Z,9556
2017-10-28T11:01:33.461Z,9220
2017-10-28T11:02:46.057Z,7648
2017-10-28T11:03:58.352Z,7404
2017-10-28T11:05:10.939Z,7212
2017-10-28T11:06:23.257Z,6040
2017-10-28T11:07:35.227Z,5684
2017-10-28T11:08:47.831Z,5280
2017-10-28T11:10:00.478Z,5340
2017-10-28T11:11:13.119Z,5948
2017-10-28T11:12:25.735Z,5824
2017-10-28T11:13:38.035Z,6008
2017-10-28T11:14:50.329Z,6028
2017-10-28T11:16:02.630Z,6708
2017-10-28T11:17:14.928Z,5476
2017-10-28T11:18:27.548Z,6720
2017-10-28T11:19:39.847Z,4404
2017-10-28T11:20:52.462Z,5144
2017-10-28T11:22:05.060Z,5492
2017-10-28T11:23:17.024Z,5596
2017-10-28T11:24:29.651Z,6212
2017-10-28T11:25:41.973Z,7004
2017-10-28T11:26:53.615Z,7648
2017-10-28T11:28:05.615Z,6372
2017-10-28T11:29:18.599Z,5600
2017-10-28T11:30:31.205Z,5180
2017-10-28T11:31:43.479Z,5192
2017-10-28T11:32:55.144Z,5428
2017-10-28T11:34:07.732Z,5416
2017-10-28T11:35:20.020Z,5372
2017-10-28T11:36:32.659Z,5020
2017-10-28T11:37:45.271Z,3832
2017-10-28T11:38:57.571Z,4804
2017-10-28T11:40:10.111Z,6456
2017-10-28T11:41:22.714Z,5836
2017-10-28T11:42:34.701Z,6148
2017-10-28T11:43:47.339Z,7200
2017-10-28T11:44:59.618Z,5720
2017-10-28T11:46:11.901Z,6880
2017-10-28T11:47:23.866Z,6412
2017-10-28T11:48:36.463Z,5552
2017-10-28T11:49:48.411Z,6324
2017-10-28T11:51:00.999Z,7724
2017-10-28T11:52:12.970Z,9976
2017-10-28T11:53:25.595Z,10960
2017-10-28T11:54:37.869Z,10368
2017-10-28T11:55:49.837Z,6752
2017-10-28T11:57:02.432Z,7864
2017-10-28T11:58:14.731Z,7328
2017-10-28T11:59:27.025Z,5708
2017-10-28T12:00:39.666Z,6172
2017-10-28T12:01:52.290Z,6608
2017-10-28T12:03:04.585Z,5512
2017-10-28T12:04:16.858Z,5916
2017-10-28T12:05:29.494Z,5656
2017-10-28T12:06:41.771Z,3860
2017-10-28T12:07:54.381Z,4984
2017-10-28T12:09:07.016Z,6592
2017-10-28T12:10:19.637Z,4856
2017-10-28T12:11:32.284Z,3352
2017-10-28T12:12:44.906Z,4312
2017-10-28T12:13:57.174Z,5972
2017-10-28T12:15:09.791Z,5600
2017-10-28T12:16:21.740Z,4644
2017-10-28T12:17:34.351Z,5380
2017-10-28T12:18:46.648Z,6444
2017-10-28T12:19:58.649Z,6980
2017-10-28T12:21:10.951Z,6516
2017-10-28T12:22:23.285Z,8600
2017-10-28T12:23:35.267Z,8596
2017-10-28T12:24:47.899Z,10916
2017-10-28T12:26:00.198Z,11320
2017-10-28T12:27:12.829Z,11440
2017-10-28T12:28:25.431Z,12088
2017-10-28T12:29:38.068Z,12612
2017-10-28T12:30:50.702Z,13556
2017-10-28T12:32:03.006Z,13976
2017-10-28T12:33:15.629Z,14592
2017-10-28T12:34:28.227Z,12000
2017-10-28T12:35:40.540Z,9848
2017-10-28T12:36:53.141Z,9792
2017-10-28T12:38:05.429Z,10552
2017-10-28T12:39:18.055Z,11108
2017-10-28T12:40:30.679Z,11884
2017-10-28T12:41:42.975Z,10796
2017-10-28T12:42:55.241Z,10132
2017-10-28T12:44:07.866Z,7656
2017-10-28T12:45:20.475Z,8660
2017-10-28T12:46:32.781Z,9256
2017-10-28T12:47:45.048Z,9616
2017-10-28T12:48:57.645Z,9588
2017-10-28T12:50:09.607Z,8636
2017-10-28T12:51:21.915Z,8408
2017-10-28T12:52:34.213Z,7708
2017-10-28T12:53:46.502Z,5376
2017-10-28T12:54:59.097Z,6260
2017-10-28T12:56:11.365Z,6664
2017-10-28T12:57:23.981Z,7312
2017-10-28T12:58:36.605Z,6060
2017-10-28T12:59:48.897Z,5484
2017-10-28T13:01:01.205Z,5192
2017-10-28T13:02:13.502Z,6072
2017-10-28T13:03:25.835Z,5452
2017-10-28T13:04:38.431Z,6312
2017-10-28T13:05:51.041Z,4820
2017-10-28T13:07:03.653Z,5752
2017-10-28T13:08:16.250Z,5420
2017-10-28T13:09:28.849Z,5796
2017-10-28T13:10:41.145Z,5572
2017-10-28T13:11:53.154Z,4176
2017-10-28T13:13:05.749Z,4048
2017-10-28T13:14:18.037Z,3372
2017-10-28T13:15:30.369Z,3064
2017-10-28T13:16:42.966Z,3092
2017-10-28T13:17:55.844Z,2860
2017-10-28T13:19:08.465Z,2452
2017-10-28T13:20:20.784Z,2412
2017-10-28T13:21:33.398Z,2432
2017-10-28T13:22:46.023Z,2372
2017-10-28T13:23:58.660Z,2504
2017-10-28T13:25:10.291Z,3120
2017-10-28T13:26:22.926Z,2496
2017-10-28T13:27:35.538Z,2052
2017-10-28T13:28:48.154Z,1788
2017-10-28T13:30:00.793Z,1816
2017-10-28T13:31:13.095Z,2044
2017-10-28T13:32:25.680Z,2060
2017-10-28T13:33:37.963Z,2740
2017-10-28T13:34:50.583Z,2544
2017-10-28T13:36:02.870Z,2360
2017-10-28T13:37:15.149Z,2136
2017-10-28T13:38:27.458Z,2740
2017-10-28T13:39:40.065Z,2500
2017-10-28T13:40:52.686Z,2556
2017-10-28T13:42:04.357Z,2052
2017-10-28T13:43:16.982Z,1632
2017-10-28T13:44:29.273Z,1444
2017-10-28T13:45:41.568Z,1268
2017-10-28T13:46:53.890Z,1240
2017-10-28T13:48:06.498Z,1252
2017-10-28T13:49:18.778Z,1232
2017-10-28T13:50:30.401Z,1544
2017-10-28T13:51:42.996Z,2004
2017-10-28T13:52:54.967Z,2316
2017-10-28T13:54:07.555Z,2220
2017-10-28T13:55:20.187Z,2160
2017-10-28T13:56:31.851Z,2068
2017-10-28T13:57:44.452Z,2168
2017-10-28T13:58:57.046Z,2664
2017-10-28T14:00:09.654Z,1988
2017-10-28T14:01:22.264Z,2080
2017-10-28T14:02:34.896Z,1952
2017-10-28T14:03:47.175Z,2024
2017-10-28T14:04:59.798Z,2364
2017-10-28T14:06:12.091Z,2572
2017-10-28T14:07:24.389Z,2328
2017-10-28T14:08:37.036Z,2204
2017-10-28T14:09:49.669Z,3352
2017-10-28T14:11:01.994Z,3320
2017-10-28T14:12:14.286Z,3016
2017-10-28T14:13:26.561Z,2364
2017-10-28T14:14:38.838Z,2304
2017-10-28T14:15:51.132Z,2372
2017-10-28T14:17:03.758Z,2348
2017-10-28T14:18:16.055Z,2464
2017-10-28T14:19:28.345Z,2520
2017-10-28T14:20:40.964Z,2088
2017-10-28T14:21:53.584Z,1932
2017-10-28T14:23:05.858Z,1524
2017-10-28T14:24:18.174Z,1628
2017-10-28T14:25:30.462Z,2000
2017-10-28T14:26:43.067Z,2152
2017-10-28T14:27:55.363Z,1992
2017-10-28T14:29:07.361Z,2628
2017-10-28T14:30:19.975Z,3104
2017-10-28T14:31:32.624Z,3156
2017-10-28T14:32:45.245Z,2296
2017-10-28T14:33:57.819Z,2432
2017-10-28T14:35:10.120Z,1968
2017-10-28T14:36:22.075Z,1380
2017-10-28T14:37:34.381Z,1576
2017-10-28T14:38:47.002Z,1396
2017-10-28T14:39:59.275Z,1332
2017-10-28T14:41:11.560Z,2000
2017-10-28T14:42:23.860Z,1744
2017-10-28T14:43:36.463Z,1472
2017-10-28T14:44:48.772Z,1400
2017-10-28T14:46:01.401Z,1316
2017-10-28T14:47:13.372Z,1132
2017-10-28T14:48:25.984Z,1116
2017-10-28T14:49:38.655Z,1224
2017-10-28T14:50:51.297Z,1312
2017-10-28T14:52:03.595Z,1260
2017-10-28T14:53:15.600Z,992
2017-10-28T14:54:28.208Z,988
2017-10-28T14:55:39.858Z,916
2017-10-28T14:56:52.166Z,948
2017-10-28T14:58:04.483Z,1112
2017-10-28T14:59:16.777Z,1120
2017-10-28T15:00:29.416Z,1060
2017-10-28T15:01:41.757Z,1016
2017-10-28T15:02:54.381Z,768
2017-10-28T15:04:07.011Z,656
2017-10-28T15:05:19.322Z,684
2017-10-28T15:06:32.173Z,1028
2017-10-28T15:07:44.468Z,1224
2017-10-28T15:08:56.765Z,1088
2017-10-28T15:10:09.060Z,1164
2017-10-28T15:11:21.330Z,924
2017-10-28T15:12:33.633Z,876
2017-10-28T15:13:45.925Z,912
2017-10-28T15:14:57.887Z,828
2017-10-28T15:16:09.841Z,852
2017-10-28T15:17:22.108Z,860
2017-10-28T15:18:34.701Z,812
2017-10-28T15:19:47.318Z,1064
2017-10-28T15:20:59.639Z,636
2017-10-28T15:22:11.587Z,568
2017-10-28T15:23:24.239Z,532
2017-10-28T15:24:36.861Z,604
2017-10-28T15:25:49.475Z,688
2017-10-28T15:27:02.108Z,540
2017-10-28T15:28:14.040Z,372
2017-10-28T15:29:26.669Z,376
2017-10-28T15:30:39.317Z,472
2017-10-28T15:31:51.587Z,472
2017-10-28T15:33:03.555Z,460
2017-10-28T15:34:15.834Z,452
2017-10-28T15:35:28.444Z,372
2017-10-28T15:36:41.070Z,316
2017-10-28T15:37:53.363Z,328
2017-10-28T15:39:06.206Z,236
2017-10-28T15:40:18.804Z,192
2017-10-28T15:41:31.397Z,152
2017-10-28T15:42:43.662Z,148
2017-10-28T15:43:55.642Z,132
2017-10-28T15:45:07.927Z,104
2017-10-28T15:46:20.532Z,100
2017-10-28T15:47:32.846Z,88
2017-10-28T15:48:45.455Z,92
2017-10-28T15:49:58.058Z,68
2017-10-28T15:51:09.712Z,72
2017-10-28T15:52:22.314Z,64
2017-10-28T15:53:34.581Z,60
2017-10-28T15:54:46.877Z,52
2017-10-28T15:55:59.175Z,32
2017-10-28T15:57:11.114Z,24
2017-10-28T15:58:23.729Z,20
2017-10-28T15:59:36.334Z,16
2017-10-28T16:00:48.609Z,12
2017-10-28T16:02:01.215Z,8
2017-10-28T16:03:13.494Z,8
2017-10-28T16:04:26.089Z,8
2017-10-28T16:05:38.718Z,8
2017-10-28T16:06:50.731Z,4
2017-10-28T16:08:03.329Z,4
2017-10-28T16:09:15.946Z,4
2017-10-28T16:10:28.543Z,4
2017-10-28T16:11:41.390Z,4
2017-10-28T16:12:54.010Z,4
2017-10-28T16:14:05.971Z,4
2017-10-28T16:15:18.271Z,0
2017-10-28T16:16:30.566Z,0
2017-10-28T16:17:43.194Z,0
2017-10-28T16:18:54.815Z,0
2017-10-28T16:20:07.433Z,0
2017-10-28T16:21:20.032Z,0
2017-10-28T16:22:32.547Z,0
2017-10-28T16:23:45.148Z,0
2017-10-28T16:24:57.764Z,0
2017-10-28T16:26:09.414Z,0
2017-10-28T16:27:22.030Z,0
2017-10-28T16:28:34.320Z,0
2017-10-28T16:29:46.926Z,0
2017-10-28T16:30:59.547Z,0
2017-10-28T16:32:11.837Z,0
2017-10-28T16:33:23.813Z,0
2017-10-28T16:34:36.450Z,0
2017-10-28T16:35:49.042Z,0
2017-10-28T16:37:01.313Z,0
2017-10-28T16:38:13.618Z,0
2017-10-28T16:39:26.236Z,0
2017-10-28T16:40:38.854Z,0
2017-10-28T16:41:50.533Z,0
2017-10-28T16:43:03.154Z,0
2017-10-28T16:44:15.428Z,0